sensor_id;sensor_type;location;lat;lon;timestamp;P1;durP1;ratioP1;P2;durP2;ratioP2
35418;SDS011;21525;41.240;16.500;2023-03-01T00:01:22;15.63;;;7.40;;
35418;SDS011;21525;41.240;16.500;2023-03-01T00:03:50;16.75;;;8.05;;
35418;SDS011;21525;41.240;16.500;2023-03-01T00:06:17;18.02;;;8.07;;
35418;SDS011;21525;41.240;16.500;2023-03-01T00:08:44;17.63;;;8.40;;
35418;SDS011;21525;41.240;16.500;2023-03-01T00:11:17;20.35;;;8.57;;
35418;SDS011;21525;41.240;16.500;2023-03-01T00:13:51;20.05;;;9.27;;
35418;SDS011;21525;41.240;16.500;2023-03-01T00:16:20;18.23;;;8.88;;
35418;SDS011;21525;41.240;16.500;2023-03-01T00:18:51;19.92;;;8.30;;
35418;SDS011;21525;41.240;16.500;2023-03-01T00:21:19;18.33;;;8.57;;
35418;SDS011;21525;41.240;16.500;2023-03-01T00:23:46;17.45;;;8.70;;
35418;SDS011;21525;41.240;16.500;2023-03-01T00:26:14;19.48;;;8.57;;
35418;SDS011;21525;41.240;16.500;2023-03-01T00:28:41;18.23;;;8.95;;
35418;SDS011;21525;41.240;16.500;2023-03-01T00:31:08;15.50;;;9.68;;
35418;SDS011;21525;41.240;16.500;2023-03-01T00:33:36;18.35;;;9.25;;
35418;SDS011;21525;41.240;16.500;2023-03-01T00:36:02;17.20;;;8.80;;
35418;SDS011;21525;41.240;16.500;2023-03-01T00:38:28;17.25;;;9.63;;
35418;SDS011;21525;41.240;16.500;2023-03-01T00:40:55;16.85;;;9.38;;
35418;SDS011;21525;41.240;16.500;2023-03-01T00:43:20;19.13;;;9.20;;
35418;SDS011;21525;41.240;16.500;2023-03-01T00:45:46;15.30;;;9.75;;
35418;SDS011;21525;41.240;16.500;2023-03-01T00:48:12;22.40;;;10.70;;
35418;SDS011;21525;41.240;16.500;2023-03-01T00:50:38;21.50;;;10.98;;
35418;SDS011;21525;41.240;16.500;2023-03-01T00:53:04;20.40;;;10.15;;
35418;SDS011;21525;41.240;16.500;2023-03-01T00:55:30;17.98;;;9.75;;
35418;SDS011;21525;41.240;16.500;2023-03-01T00:57:56;15.98;;;10.13;;
35418;SDS011;21525;41.240;16.500;2023-03-01T01:00:22;19.88;;;10.48;;
35418;SDS011;21525;41.240;16.500;2023-03-01T01:02:47;23.10;;;10.65;;
35418;SDS011;21525;41.240;16.500;2023-03-01T01:05:14;19.13;;;11.05;;
35418;SDS011;21525;41.240;16.500;2023-03-01T01:07:40;19.65;;;11.50;;
35418;SDS011;21525;41.240;16.500;2023-03-01T01:10:06;18.38;;;10.90;;
35418;SDS011;21525;41.240;16.500;2023-03-01T01:12:32;26.63;;;11.75;;
35418;SDS011;21525;41.240;16.500;2023-03-01T01:14:58;18.40;;;11.40;;
35418;SDS011;21525;41.240;16.500;2023-03-01T01:17:24;19.73;;;11.52;;
35418;SDS011;21525;41.240;16.500;2023-03-01T01:19:50;20.58;;;12.23;;
35418;SDS011;21525;41.240;16.500;2023-03-01T01:22:16;21.33;;;13.55;;
35418;SDS011;21525;41.240;16.500;2023-03-01T01:24:42;30.65;;;14.75;;
35418;SDS011;21525;41.240;16.500;2023-03-01T01:27:08;26.55;;;13.52;;
35418;SDS011;21525;41.240;16.500;2023-03-01T01:29:34;22.08;;;14.18;;
35418;SDS011;21525;41.240;16.500;2023-03-01T01:32:00;23.23;;;14.80;;
35418;SDS011;21525;41.240;16.500;2023-03-01T01:34:26;22.92;;;15.20;;
35418;SDS011;21525;41.240;16.500;2023-03-01T01:36:52;20.80;;;15.00;;
35418;SDS011;21525;41.240;16.500;2023-03-01T01:39:19;23.15;;;15.27;;
35418;SDS011;21525;41.240;16.500;2023-03-01T01:41:46;22.70;;;15.18;;
35418;SDS011;21525;41.240;16.500;2023-03-01T01:46:49;22.73;;;14.32;;
35418;SDS011;21525;41.240;16.500;2023-03-01T01:54:34;27.85;;;13.60;;
35418;SDS011;21525;41.240;16.500;2023-03-01T01:57:11;19.20;;;13.80;;
35418;SDS011;21525;41.240;16.500;2023-03-01T01:59:45;20.75;;;13.93;;
35418;SDS011;21525;41.240;16.500;2023-03-01T02:02:15;26.92;;;14.63;;
35418;SDS011;21525;41.240;16.500;2023-03-01T02:04:41;26.17;;;12.98;;
35418;SDS011;21525;41.240;16.500;2023-03-01T02:07:17;23.25;;;14.98;;
35418;SDS011;21525;41.240;16.500;2023-03-01T02:09:50;23.45;;;14.40;;
35418;SDS011;21525;41.240;16.500;2023-03-01T02:12:20;20.95;;;14.10;;
35418;SDS011;21525;41.240;16.500;2023-03-01T02:14:49;21.27;;;14.32;;
35418;SDS011;21525;41.240;16.500;2023-03-01T02:17:16;25.08;;;15.93;;
35418;SDS011;21525;41.240;16.500;2023-03-01T02:22:46;21.83;;;15.65;;
35418;SDS011;21525;41.240;16.500;2023-03-01T02:30:18;26.15;;;16.67;;
35418;SDS011;21525;41.240;16.500;2023-03-01T02:32:46;26.55;;;15.90;;
35418;SDS011;21525;41.240;16.500;2023-03-01T02:35:13;19.75;;;14.98;;
35418;SDS011;21525;41.240;16.500;2023-03-01T02:37:41;30.35;;;15.20;;
35418;SDS011;21525;41.240;16.500;2023-03-01T02:40:09;22.98;;;14.90;;
35418;SDS011;21525;41.240;16.500;2023-03-01T02:42:41;26.55;;;15.10;;
35418;SDS011;21525;41.240;16.500;2023-03-01T02:45:19;22.42;;;14.15;;
35418;SDS011;21525;41.240;16.500;2023-03-01T02:47:46;24.88;;;15.07;;
35418;SDS011;21525;41.240;16.500;2023-03-01T02:50:19;25.08;;;15.75;;
35418;SDS011;21525;41.240;16.500;2023-03-01T02:55:51;60.25;;;36.15;;
35418;SDS011;21525;41.240;16.500;2023-03-01T02:58:17;46.83;;;28.58;;
35418;SDS011;21525;41.240;16.500;2023-03-01T03:00:43;48.95;;;30.95;;
35418;SDS011;21525;41.240;16.500;2023-03-01T03:03:13;39.28;;;25.92;;
35418;SDS011;21525;41.240;16.500;2023-03-01T03:05:41;28.33;;;21.05;;
35418;SDS011;21525;41.240;16.500;2023-03-01T03:08:07;31.67;;;19.25;;
35418;SDS011;21525;41.240;16.500;2023-03-01T03:10:36;27.90;;;21.17;;
35418;SDS011;21525;41.240;16.500;2023-03-01T03:13:06;32.15;;;20.85;;
35418;SDS011;21525;41.240;16.500;2023-03-01T03:18:04;36.95;;;26.88;;
35418;SDS011;21525;41.240;16.500;2023-03-01T03:22:58;65.10;;;39.28;;
35418;SDS011;21525;41.240;16.500;2023-03-01T03:25:25;57.42;;;41.20;;
35418;SDS011;21525;41.240;16.500;2023-03-01T03:27:52;42.13;;;30.35;;
35418;SDS011;21525;41.240;16.500;2023-03-01T03:30:23;33.90;;;25.55;;
35418;SDS011;21525;41.240;16.500;2023-03-01T03:32:50;37.97;;;26.17;;
35418;SDS011;21525;41.240;16.500;2023-03-01T03:37:46;31.50;;;20.40;;
35418;SDS011;21525;41.240;16.500;2023-03-01T03:40:28;28.67;;;19.58;;
35418;SDS011;21525;41.240;16.500;2023-03-01T03:42:56;34.38;;;20.10;;
35418;SDS011;21525;41.240;16.500;2023-03-01T03:45:22;29.13;;;20.05;;
35418;SDS011;21525;41.240;16.500;2023-03-01T03:47:47;28.00;;;20.23;;
35418;SDS011;21525;41.240;16.500;2023-03-01T03:50:14;29.15;;;21.02;;
35418;SDS011;21525;41.240;16.500;2023-03-01T03:52:41;36.25;;;21.55;;
35418;SDS011;21525;41.240;16.500;2023-03-01T03:55:07;31.73;;;22.73;;
35418;SDS011;21525;41.240;16.500;2023-03-01T03:57:40;34.63;;;23.90;;
35418;SDS011;21525;41.240;16.500;2023-03-01T04:00:07;32.28;;;24.58;;
35418;SDS011;21525;41.240;16.500;2023-03-01T04:02:40;35.42;;;26.88;;
35418;SDS011;21525;41.240;16.500;2023-03-01T04:07:36;36.60;;;20.88;;
35418;SDS011;21525;41.240;16.500;2023-03-01T04:10:03;36.65;;;25.25;;
35418;SDS011;21525;41.240;16.500;2023-03-01T04:12:32;32.63;;;24.80;;
35418;SDS011;21525;41.240;16.500;2023-03-01T04:14:59;35.28;;;27.05;;
35418;SDS011;21525;41.240;16.500;2023-03-01T04:17:26;38.88;;;27.35;;
35418;SDS011;21525;41.240;16.500;2023-03-01T04:19:52;48.25;;;36.63;;
35418;SDS011;21525;41.240;16.500;2023-03-01T04:22:18;52.35;;;31.13;;
35418;SDS011;21525;41.240;16.500;2023-03-01T04:24:44;35.22;;;25.98;;
35418;SDS011;21525;41.240;16.500;2023-03-01T04:27:11;39.45;;;26.20;;
35418;SDS011;21525;41.240;16.500;2023-03-01T04:29:37;34.85;;;23.85;;
35418;SDS011;21525;41.240;16.500;2023-03-01T04:32:03;36.97;;;24.55;;
35418;SDS011;21525;41.240;16.500;2023-03-01T04:34:30;34.45;;;24.52;;
35418;SDS011;21525;41.240;16.500;2023-03-01T04:36:55;32.75;;;24.02;;
35418;SDS011;21525;41.240;16.500;2023-03-01T04:39:21;35.50;;;24.00;;
35418;SDS011;21525;41.240;16.500;2023-03-01T04:41:47;33.80;;;24.92;;
35418;SDS011;21525;41.240;16.500;2023-03-01T04:44:13;35.92;;;25.95;;
35418;SDS011;21525;41.240;16.500;2023-03-01T04:46:38;29.92;;;21.55;;
35418;SDS011;21525;41.240;16.500;2023-03-01T04:49:04;26.45;;;21.55;;
35418;SDS011;21525;41.240;16.500;2023-03-01T04:51:30;26.80;;;21.48;;
35418;SDS011;21525;41.240;16.500;2023-03-01T04:53:57;26.45;;;17.88;;
35418;SDS011;21525;41.240;16.500;2023-03-01T04:56:23;23.27;;;16.88;;
35418;SDS011;21525;41.240;16.500;2023-03-01T04:58:49;19.83;;;14.45;;
35418;SDS011;21525;41.240;16.500;2023-03-01T05:01:19;20.80;;;17.00;;
35418;SDS011;21525;41.240;16.500;2023-03-01T05:03:46;20.27;;;13.73;;
35418;SDS011;21525;41.240;16.500;2023-03-01T05:06:14;23.95;;;15.07;;
35418;SDS011;21525;41.240;16.500;2023-03-01T05:08:41;17.88;;;11.70;;
35418;SDS011;21525;41.240;16.500;2023-03-01T05:11:07;12.73;;;8.15;;
35418;SDS011;21525;41.240;16.500;2023-03-01T05:13:34;20.85;;;12.10;;
35418;SDS011;21525;41.240;16.500;2023-03-01T05:16:01;18.10;;;11.43;;
35418;SDS011;21525;41.240;16.500;2023-03-01T05:18:29;14.75;;;9.82;;
35418;SDS011;21525;41.240;16.500;2023-03-01T05:21:01;10.60;;;5.53;;
35418;SDS011;21525;41.240;16.500;2023-03-01T05:23:37;7.85;;;4.75;;
35418;SDS011;21525;41.240;16.500;2023-03-01T05:26:04;6.07;;;3.95;;
35418;SDS011;21525;41.240;16.500;2023-03-01T05:28:31;9.95;;;4.47;;
35418;SDS011;21525;41.240;16.500;2023-03-01T05:30:57;11.15;;;4.55;;
35418;SDS011;21525;41.240;16.500;2023-03-01T05:33:23;5.40;;;3.08;;
35418;SDS011;21525;41.240;16.500;2023-03-01T05:35:50;15.48;;;5.03;;
35418;SDS011;21525;41.240;16.500;2023-03-01T05:38:20;12.27;;;7.28;;
35418;SDS011;21525;41.240;16.500;2023-03-01T05:40:47;11.15;;;5.80;;
35418;SDS011;21525;41.240;16.500;2023-03-01T05:43:14;10.38;;;5.38;;
35418;SDS011;21525;41.240;16.500;2023-03-01T05:45:41;7.07;;;4.13;;
35418;SDS011;21525;41.240;16.500;2023-03-01T05:48:08;15.98;;;9.27;;
35418;SDS011;21525;41.240;16.500;2023-03-01T05:50:40;8.60;;;4.55;;
35418;SDS011;21525;41.240;16.500;2023-03-01T05:53:18;12.07;;;5.00;;
35418;SDS011;21525;41.240;16.500;2023-03-01T05:55:46;11.38;;;5.63;;
35418;SDS011;21525;41.240;16.500;2023-03-01T05:58:14;9.35;;;5.35;;
35418;SDS011;21525;41.240;16.500;2023-03-01T06:00:41;9.52;;;4.20;;
35418;SDS011;21525;41.240;16.500;2023-03-01T06:03:09;8.68;;;4.32;;
35418;SDS011;21525;41.240;16.500;2023-03-01T06:05:36;8.98;;;4.53;;
35418;SDS011;21525;41.240;16.500;2023-03-01T06:08:02;7.88;;;3.78;;
35418;SDS011;21525;41.240;16.500;2023-03-01T06:10:28;8.88;;;3.95;;
35418;SDS011;21525;41.240;16.500;2023-03-01T06:12:55;5.82;;;2.80;;
35418;SDS011;21525;41.240;16.500;2023-03-01T06:15:21;11.23;;;4.18;;
35418;SDS011;21525;41.240;16.500;2023-03-01T06:17:47;11.40;;;4.95;;
35418;SDS011;21525;41.240;16.500;2023-03-01T06:20:18;9.90;;;4.88;;
35418;SDS011;21525;41.240;16.500;2023-03-01T06:22:46;7.85;;;4.28;;
35418;SDS011;21525;41.240;16.500;2023-03-01T06:25:13;8.85;;;4.75;;
35418;SDS011;21525;41.240;16.500;2023-03-01T06:27:41;12.48;;;5.20;;
35418;SDS011;21525;41.240;16.500;2023-03-01T06:30:08;10.27;;;6.03;;
35418;SDS011;21525;41.240;16.500;2023-03-01T06:32:36;11.35;;;5.30;;
35418;SDS011;21525;41.240;16.500;2023-03-01T06:35:07;10.38;;;5.85;;
35418;SDS011;21525;41.240;16.500;2023-03-01T06:37:33;9.05;;;4.57;;
35418;SDS011;21525;41.240;16.500;2023-03-01T06:40:01;9.65;;;4.63;;
35418;SDS011;21525;41.240;16.500;2023-03-01T06:42:34;11.57;;;4.18;;
35418;SDS011;21525;41.240;16.500;2023-03-01T06:45:00;11.95;;;6.05;;
35418;SDS011;21525;41.240;16.500;2023-03-01T06:47:26;14.65;;;6.03;;
35418;SDS011;21525;41.240;16.500;2023-03-01T06:49:52;13.85;;;6.30;;
35418;SDS011;21525;41.240;16.500;2023-03-01T06:52:18;7.13;;;3.25;;
35418;SDS011;21525;41.240;16.500;2023-03-01T06:54:44;7.95;;;3.70;;
35418;SDS011;21525;41.240;16.500;2023-03-01T06:57:09;15.02;;;6.40;;
35418;SDS011;21525;41.240;16.500;2023-03-01T06:59:35;11.35;;;6.55;;
35418;SDS011;21525;41.240;16.500;2023-03-01T07:02:01;16.90;;;9.55;;
35418;SDS011;21525;41.240;16.500;2023-03-01T07:04:27;23.30;;;14.45;;
35418;SDS011;21525;41.240;16.500;2023-03-01T07:06:54;20.50;;;13.85;;
35418;SDS011;21525;41.240;16.500;2023-03-01T07:09:23;26.08;;;16.63;;
35418;SDS011;21525;41.240;16.500;2023-03-01T07:11:49;22.05;;;14.07;;
35418;SDS011;21525;41.240;16.500;2023-03-01T07:14:15;32.10;;;18.60;;
35418;SDS011;21525;41.240;16.500;2023-03-01T07:16:41;28.88;;;19.55;;
35418;SDS011;21525;41.240;16.500;2023-03-01T07:19:07;25.50;;;15.98;;
35418;SDS011;21525;41.240;16.500;2023-03-01T07:21:33;25.77;;;15.48;;
35418;SDS011;21525;41.240;16.500;2023-03-01T07:23:59;19.02;;;9.98;;
35418;SDS011;21525;41.240;16.500;2023-03-01T07:26:25;14.85;;;7.25;;
35418;SDS011;21525;41.240;16.500;2023-03-01T07:28:50;11.35;;;6.25;;
35418;SDS011;21525;41.240;16.500;2023-03-01T07:31:16;14.65;;;6.22;;
35418;SDS011;21525;41.240;16.500;2023-03-01T07:33:42;12.98;;;6.45;;
35418;SDS011;21525;41.240;16.500;2023-03-01T07:36:08;12.18;;;5.88;;
35418;SDS011;21525;41.240;16.500;2023-03-01T07:38:34;11.10;;;5.97;;
35418;SDS011;21525;41.240;16.500;2023-03-01T07:41:00;13.93;;;7.25;;
35418;SDS011;21525;41.240;16.500;2023-03-01T07:43:28;14.75;;;7.22;;
35418;SDS011;21525;41.240;16.500;2023-03-01T07:45:54;15.27;;;6.80;;
35418;SDS011;21525;41.240;16.500;2023-03-01T07:48:23;14.45;;;8.02;;
35418;SDS011;21525;41.240;16.500;2023-03-01T07:50:48;14.15;;;8.30;;
35418;SDS011;21525;41.240;16.500;2023-03-01T07:53:14;12.77;;;7.10;;
35418;SDS011;21525;41.240;16.500;2023-03-01T07:55:40;10.90;;;6.90;;
35418;SDS011;21525;41.240;16.500;2023-03-01T07:58:06;14.02;;;6.85;;
35418;SDS011;21525;41.240;16.500;2023-03-01T08:00:31;11.45;;;6.50;;
35418;SDS011;21525;41.240;16.500;2023-03-01T08:03:00;13.35;;;7.88;;
35418;SDS011;21525;41.240;16.500;2023-03-01T08:05:27;15.45;;;6.70;;
35418;SDS011;21525;41.240;16.500;2023-03-01T08:07:53;15.73;;;8.07;;
35418;SDS011;21525;41.240;16.500;2023-03-01T08:10:20;10.10;;;6.45;;
35418;SDS011;21525;41.240;16.500;2023-03-01T08:12:45;12.25;;;6.43;;
35418;SDS011;21525;41.240;16.500;2023-03-01T08:15:11;14.88;;;7.50;;
35418;SDS011;21525;41.240;16.500;2023-03-01T08:17:37;12.25;;;6.63;;
35418;SDS011;21525;41.240;16.500;2023-03-01T08:20:03;12.35;;;7.15;;
35418;SDS011;21525;41.240;16.500;2023-03-01T08:22:32;13.85;;;6.30;;
35418;SDS011;21525;41.240;16.500;2023-03-01T08:24:58;11.65;;;5.50;;
35418;SDS011;21525;41.240;16.500;2023-03-01T08:27:23;11.48;;;5.88;;
35418;SDS011;21525;41.240;16.500;2023-03-01T08:29:49;9.57;;;5.80;;
35418;SDS011;21525;41.240;16.500;2023-03-01T08:32:15;10.63;;;5.75;;
35418;SDS011;21525;41.240;16.500;2023-03-01T08:34:41;13.90;;;5.72;;
35418;SDS011;21525;41.240;16.500;2023-03-01T08:37:07;7.20;;;4.65;;
35418;SDS011;21525;41.240;16.500;2023-03-01T08:39:34;9.30;;;5.07;;
35418;SDS011;21525;41.240;16.500;2023-03-01T08:41:59;11.77;;;5.38;;
35418;SDS011;21525;41.240;16.500;2023-03-01T08:44:25;12.40;;;5.72;;
35418;SDS011;21525;41.240;16.500;2023-03-01T08:46:51;10.32;;;5.07;;
35418;SDS011;21525;41.240;16.500;2023-03-01T08:49:18;11.85;;;5.78;;
35418;SDS011;21525;41.240;16.500;2023-03-01T08:51:45;8.02;;;4.82;;
35418;SDS011;21525;41.240;16.500;2023-03-01T08:54:13;10.73;;;4.70;;
35418;SDS011;21525;41.240;16.500;2023-03-01T08:56:40;16.35;;;5.03;;
35418;SDS011;21525;41.240;16.500;2023-03-01T08:59:07;8.95;;;4.50;;
35418;SDS011;21525;41.240;16.500;2023-03-01T09:01:33;8.23;;;4.30;;
35418;SDS011;21525;41.240;16.500;2023-03-01T09:03:59;12.35;;;5.50;;
35418;SDS011;21525;41.240;16.500;2023-03-01T09:06:25;9.88;;;5.25;;
35418;SDS011;21525;41.240;16.500;2023-03-01T09:08:51;11.15;;;5.28;;
35418;SDS011;21525;41.240;16.500;2023-03-01T09:11:18;15.68;;;5.55;;
35418;SDS011;21525;41.240;16.500;2023-03-01T09:13:45;14.10;;;4.82;;
35418;SDS011;21525;41.240;16.500;2023-03-01T09:16:13;12.05;;;5.72;;
35418;SDS011;21525;41.240;16.500;2023-03-01T09:18:39;14.85;;;6.65;;
35418;SDS011;21525;41.240;16.500;2023-03-01T09:21:06;12.88;;;5.45;;
35418;SDS011;21525;41.240;16.500;2023-03-01T09:23:33;12.70;;;6.50;;
35418;SDS011;21525;41.240;16.500;2023-03-01T09:26:04;9.70;;;4.93;;
35418;SDS011;21525;41.240;16.500;2023-03-01T09:28:31;13.45;;;5.15;;
35418;SDS011;21525;41.240;16.500;2023-03-01T09:31:00;11.40;;;5.13;;
35418;SDS011;21525;41.240;16.500;2023-03-01T09:33:27;14.20;;;4.53;;
35418;SDS011;21525;41.240;16.500;2023-03-01T09:35:58;12.60;;;4.57;;
35418;SDS011;21525;41.240;16.500;2023-03-01T09:38:24;10.50;;;4.32;;
35418;SDS011;21525;41.240;16.500;2023-03-01T09:40:51;10.95;;;4.53;;
35418;SDS011;21525;41.240;16.500;2023-03-01T09:45:56;10.20;;;4.45;;
35418;SDS011;21525;41.240;16.500;2023-03-01T09:48:26;14.35;;;5.25;;
35418;SDS011;21525;41.240;16.500;2023-03-01T09:50:58;14.65;;;5.57;;
35418;SDS011;21525;41.240;16.500;2023-03-01T09:53:31;11.55;;;5.05;;
35418;SDS011;21525;41.240;16.500;2023-03-01T09:58:52;12.90;;;4.32;;
35418;SDS011;21525;41.240;16.500;2023-03-01T10:09:53;11.85;;;4.53;;
35418;SDS011;21525;41.240;16.500;2023-03-01T10:12:24;11.52;;;4.88;;
35418;SDS011;21525;41.240;16.500;2023-03-01T10:22:38;10.95;;;3.50;;
35418;SDS011;21525;41.240;16.500;2023-03-01T10:25:04;5.60;;;3.20;;
35418;SDS011;21525;41.240;16.500;2023-03-01T10:27:51;13.27;;;3.10;;
35418;SDS011;21525;41.240;16.500;2023-03-01T10:30:21;16.17;;;3.53;;
35418;SDS011;21525;41.240;16.500;2023-03-01T10:32:55;6.35;;;3.10;;
35418;SDS011;21525;41.240;16.500;2023-03-01T10:35:24;9.45;;;3.78;;
35418;SDS011;21525;41.240;16.500;2023-03-01T10:40:32;7.18;;;3.20;;
35418;SDS011;21525;41.240;16.500;2023-03-01T10:43:01;9.85;;;3.45;;
35418;SDS011;21525;41.240;16.500;2023-03-01T10:50:42;7.93;;;3.63;;
35418;SDS011;21525;41.240;16.500;2023-03-01T10:53:32;9.48;;;3.67;;
35418;SDS011;21525;41.240;16.500;2023-03-01T10:56:14;11.07;;;3.80;;
35418;SDS011;21525;41.240;16.500;2023-03-01T10:58:41;11.35;;;4.00;;
35418;SDS011;21525;41.240;16.500;2023-03-01T11:01:26;9.93;;;3.65;;
35418;SDS011;21525;41.240;16.500;2023-03-01T11:06:32;10.67;;;5.23;;
35418;SDS011;21525;41.240;16.500;2023-03-01T11:11:44;13.35;;;4.38;;
35418;SDS011;21525;41.240;16.500;2023-03-01T11:16:44;11.35;;;4.93;;
35418;SDS011;21525;41.240;16.500;2023-03-01T11:19:17;14.15;;;4.00;;
35418;SDS011;21525;41.240;16.500;2023-03-01T11:27:28;11.65;;;3.28;;
35418;SDS011;21525;41.240;16.500;2023-03-01T11:35:28;11.50;;;3.42;;
35418;SDS011;21525;41.240;16.500;2023-03-01T11:40:26;9.27;;;3.78;;
35418;SDS011;21525;41.240;16.500;2023-03-01T11:46:06;18.13;;;5.43;;
35418;SDS011;21525;41.240;16.500;2023-03-01T12:04:43;10.07;;;3.50;;
35418;SDS011;21525;41.240;16.500;2023-03-01T12:26:33;9.63;;;1.92;;
35418;SDS011;21525;41.240;16.500;2023-03-01T12:39:55;13.30;;;4.93;;
35418;SDS011;21525;41.240;16.500;2023-03-01T12:52:52;7.15;;;2.10;;
35418;SDS011;21525;41.240;16.500;2023-03-01T13:01:04;4.90;;;1.80;;
35418;SDS011;21525;41.240;16.500;2023-03-01T13:09:09;13.02;;;2.20;;
35418;SDS011;21525;41.240;16.500;2023-03-01T13:11:41;4.22;;;1.40;;
35418;SDS011;21525;41.240;16.500;2023-03-01T13:14:50;4.90;;;1.60;;
35418;SDS011;21525;41.240;16.500;2023-03-01T13:16:57;3.75;;;1.25;;
35418;SDS011;21525;41.240;16.500;2023-03-01T13:21:51;11.13;;;2.47;;
35418;SDS011;21525;41.240;16.500;2023-03-01T13:32:27;4.68;;;1.23;;
35418;SDS011;21525;41.240;16.500;2023-03-01T13:37:44;4.88;;;1.55;;
35418;SDS011;21525;41.240;16.500;2023-03-01T13:42:55;5.57;;;1.60;;
35418;SDS011;21525;41.240;16.500;2023-03-01T13:45:24;4.38;;;1.30;;
35418;SDS011;21525;41.240;16.500;2023-03-01T13:47:53;10.10;;;2.00;;
35418;SDS011;21525;41.240;16.500;2023-03-01T13:50:27;7.93;;;1.73;;
35418;SDS011;21525;41.240;16.500;2023-03-01T13:52:59;8.18;;;1.77;;
35418;SDS011;21525;41.240;16.500;2023-03-01T13:55:44;2.40;;;1.83;;
35418;SDS011;21525;41.240;16.500;2023-03-01T13:58:16;9.55;;;2.40;;
35418;SDS011;21525;41.240;16.500;2023-03-01T14:00:46;6.43;;;2.10;;
35418;SDS011;21525;41.240;16.500;2023-03-01T14:03:16;9.05;;;4.28;;
35418;SDS011;21525;41.240;16.500;2023-03-01T14:08:37;14.07;;;2.70;;
35418;SDS011;21525;41.240;16.500;2023-03-01T14:19:46;7.18;;;1.90;;
35418;SDS011;21525;41.240;16.500;2023-03-01T14:22:24;4.95;;;1.50;;
35418;SDS011;21525;41.240;16.500;2023-03-01T14:25:01;6.30;;;1.65;;
35418;SDS011;21525;41.240;16.500;2023-03-01T14:27:33;8.38;;;1.90;;
35418;SDS011;21525;41.240;16.500;2023-03-01T14:30:24;4.15;;;1.10;;
35418;SDS011;21525;41.240;16.500;2023-03-01T14:32:57;10.60;;;1.80;;
35418;SDS011;21525;41.240;16.500;2023-03-01T14:35:26;5.60;;;1.90;;
35418;SDS011;21525;41.240;16.500;2023-03-01T14:37:54;6.85;;;1.80;;
35418;SDS011;21525;41.240;16.500;2023-03-01T14:40:22;6.35;;;1.70;;
35418;SDS011;21525;41.240;16.500;2023-03-01T14:42:55;7.40;;;1.67;;
35418;SDS011;21525;41.240;16.500;2023-03-01T14:45:24;7.25;;;1.73;;
35418;SDS011;21525;41.240;16.500;2023-03-01T14:47:52;13.48;;;2.97;;
35418;SDS011;21525;41.240;16.500;2023-03-01T14:50:25;8.00;;;2.05;;
35418;SDS011;21525;41.240;16.500;2023-03-01T14:52:54;9.50;;;3.20;;
35418;SDS011;21525;41.240;16.500;2023-03-01T14:57:58;17.67;;;4.97;;
35418;SDS011;21525;41.240;16.500;2023-03-01T15:00:25;18.33;;;5.05;;
35418;SDS011;21525;41.240;16.500;2023-03-01T15:02:54;6.70;;;1.95;;
35418;SDS011;21525;41.240;16.500;2023-03-01T15:05:24;6.80;;;1.30;;
35418;SDS011;21525;41.240;16.500;2023-03-01T15:07:55;10.02;;;1.77;;
35418;SDS011;21525;41.240;16.500;2023-03-01T15:10:24;8.00;;;2.08;;
35418;SDS011;21525;41.240;16.500;2023-03-01T15:12:54;9.18;;;2.03;;
35418;SDS011;21525;41.240;16.500;2023-03-01T15:17:56;6.85;;;2.30;;
35418;SDS011;21525;41.240;16.500;2023-03-01T15:20:25;6.00;;;2.17;;
35418;SDS011;21525;41.240;16.500;2023-03-01T15:22:54;8.02;;;2.22;;
35418;SDS011;21525;41.240;16.500;2023-03-01T15:25:23;13.80;;;5.07;;
35418;SDS011;21525;41.240;16.500;2023-03-01T15:27:51;11.30;;;2.92;;
35418;SDS011;21525;41.240;16.500;2023-03-01T15:35:53;9.43;;;3.22;;
35418;SDS011;21525;41.240;16.500;2023-03-01T15:38:27;9.32;;;3.78;;
35418;SDS011;21525;41.240;16.500;2023-03-01T15:40:56;8.02;;;2.58;;
35418;SDS011;21525;41.240;16.500;2023-03-01T15:46:33;6.97;;;3.20;;
35418;SDS011;21525;41.240;16.500;2023-03-01T15:49:01;12.13;;;3.78;;
35418;SDS011;21525;41.240;16.500;2023-03-01T15:51:36;12.73;;;3.95;;
35418;SDS011;21525;41.240;16.500;2023-03-01T15:54:04;14.73;;;4.47;;
35418;SDS011;21525;41.240;16.500;2023-03-01T15:56:39;12.85;;;4.22;;
35418;SDS011;21525;41.240;16.500;2023-03-01T15:59:05;10.32;;;4.20;;
35418;SDS011;21525;41.240;16.500;2023-03-01T16:01:32;16.98;;;4.80;;
35418;SDS011;21525;41.240;16.500;2023-03-01T16:04:00;12.32;;;3.63;;
35418;SDS011;21525;41.240;16.500;2023-03-01T16:06:26;11.65;;;3.17;;
35418;SDS011;21525;41.240;16.500;2023-03-01T16:08:51;14.35;;;3.58;;
35418;SDS011;21525;41.240;16.500;2023-03-01T16:11:18;13.85;;;3.75;;
35418;SDS011;21525;41.240;16.500;2023-03-01T16:13:45;9.73;;;2.67;;
35418;SDS011;21525;41.240;16.500;2023-03-01T16:16:11;10.57;;;2.92;;
35418;SDS011;21525;41.240;16.500;2023-03-01T16:18:40;16.73;;;3.55;;
35418;SDS011;21525;41.240;16.500;2023-03-01T16:21:10;7.50;;;2.50;;
35418;SDS011;21525;41.240;16.500;2023-03-01T16:23:37;12.13;;;3.85;;
35418;SDS011;21525;41.240;16.500;2023-03-01T16:26:03;8.60;;;3.90;;
35418;SDS011;21525;41.240;16.500;2023-03-01T16:28:29;15.25;;;3.95;;
35418;SDS011;21525;41.240;16.500;2023-03-01T16:30:55;16.08;;;3.65;;
35418;SDS011;21525;41.240;16.500;2023-03-01T16:33:20;13.88;;;4.30;;
35418;SDS011;21525;41.240;16.500;2023-03-01T16:35:46;12.63;;;4.10;;
35418;SDS011;21525;41.240;16.500;2023-03-01T16:38:12;14.20;;;4.82;;
35418;SDS011;21525;41.240;16.500;2023-03-01T16:40:38;10.30;;;4.45;;
35418;SDS011;21525;41.240;16.500;2023-03-01T16:43:04;14.75;;;4.15;;
35418;SDS011;21525;41.240;16.500;2023-03-01T16:48:03;15.05;;;5.05;;
35418;SDS011;21525;41.240;16.500;2023-03-01T16:50:29;14.20;;;5.78;;
35418;SDS011;21525;41.240;16.500;2023-03-01T16:52:55;11.77;;;4.25;;
35418;SDS011;21525;41.240;16.500;2023-03-01T16:55:21;14.00;;;5.05;;
35418;SDS011;21525;41.240;16.500;2023-03-01T16:57:47;13.80;;;5.38;;
35418;SDS011;21525;41.240;16.500;2023-03-01T17:00:13;12.77;;;5.22;;
35418;SDS011;21525;41.240;16.500;2023-03-01T17:02:40;11.18;;;5.55;;
35418;SDS011;21525;41.240;16.500;2023-03-01T17:05:07;14.07;;;5.78;;
35418;SDS011;21525;41.240;16.500;2023-03-01T17:07:34;14.52;;;6.00;;
35418;SDS011;21525;41.240;16.500;2023-03-01T17:10:01;17.10;;;6.40;;
35418;SDS011;21525;41.240;16.500;2023-03-01T17:12:28;21.15;;;7.97;;
35418;SDS011;21525;41.240;16.500;2023-03-01T17:14:54;13.45;;;7.07;;
35418;SDS011;21525;41.240;16.500;2023-03-01T17:17:20;13.35;;;6.53;;
35418;SDS011;21525;41.240;16.500;2023-03-01T17:19:46;16.58;;;8.18;;
35418;SDS011;21525;41.240;16.500;2023-03-01T17:22:12;14.40;;;7.28;;
35418;SDS011;21525;41.240;16.500;2023-03-01T17:24:39;17.73;;;9.07;;
35418;SDS011;21525;41.240;16.500;2023-03-01T17:27:06;15.57;;;8.23;;
35418;SDS011;21525;41.240;16.500;2023-03-01T17:29:33;22.50;;;8.68;;
35418;SDS011;21525;41.240;16.500;2023-03-01T17:31:59;15.15;;;8.73;;
35418;SDS011;21525;41.240;16.500;2023-03-01T17:34:26;18.02;;;8.80;;
35418;SDS011;21525;41.240;16.500;2023-03-01T17:36:52;18.48;;;8.82;;
35418;SDS011;21525;41.240;16.500;2023-03-01T17:39:18;20.40;;;9.27;;
35418;SDS011;21525;41.240;16.500;2023-03-01T17:41:53;13.65;;;7.25;;